Puropanmaru No.3 — JD3322 — position and weather

sailwx.info

Track history (hours):
 
Tides and Currents Weather Stations Pressure Air Temp Water Temp Dewpoint Dewpoint Depression Visibility Wind Speed Wind Dir Waves Ship Positions

Puropanmaru No.3

Last reported at 2014-Oct-31 07:33 UTC. Time now 2014-Oct-31 20:56 UTC.
Position N 35°17' E 139°45'.

Length 68 m; draft 4.5 m.

Type: Tanker. MMSI: 431003365.

Date/timePositionNaut miles runAvg speedWind from/ knotsBaromVisibWave heightAir tempDewpointWater temp
2014-Oct-31 07:33N 35°17' E 139°45'1110.5
2014-Oct-31 06:33N 35°27' E 139°48'6 0.8
2014-Oct-30 23:32N 35°29' E 139°55'0 0.1
2014-Oct-30 22:33N 35°29' E 139°55'0 0.0
2014-Oct-30 21:33N 35°29' E 139°55'0 0.0
2014-Oct-30 20:34N 35°29' E 139°55'0 0.0
2014-Oct-30 19:32N 35°29' E 139°55'0 0.0
2014-Oct-30 18:33N 35°29' E 139°55'0 0.0
2014-Oct-30 17:23N 35°29' E 139°55'8 0.7
2014-Oct-30 06:34N 35°25' E 139°47'26010.6
2014-Oct-29 06:03N 34°09' E 134°44'  
2014-Oct-25 05:31N 34°37' E 135°01'1010.5
2014-Oct-25 04:33N 34°35' E 135°13'10 1.9
2014-Oct-24 23:14N 34°32' E 135°25'4 6.0
2014-Oct-24 22:33N 34°33' E 135°20'1 1.0
2014-Oct-24 21:28N 34°32' E 135°19'0 0.0
2014-Oct-24 20:22N 34°32' E 135°19'0 0.0
2014-Oct-24 19:28N 34°32' E 135°19'0 0.0
2014-Oct-24 18:28N 34°32' E 135°19'0 0.0
2014-Oct-24 17:16N 34°32' E 135°19'0 0.0
2014-Oct-24 16:28N 34°32' E 135°19'0 0.0
2014-Oct-24 15:28N 34°32' E 135°19'0 0.0
2014-Oct-24 14:28N 34°32' E 135°19'0 0.0
2014-Oct-24 12:28N 34°32' E 135°19'0 0.0
2014-Oct-24 11:28N 34°32' E 135°19'0 0.0
2014-Oct-24 10:16N 34°32' E 135°19'0 0.1
2014-Oct-24 09:22N 34°32' E 135°19'0 0.0
2014-Oct-24 08:28N 34°32' E 135°19'0 0.0
2014-Oct-24 07:28N 34°32' E 135°19'0 0.0
2014-Oct-24 06:28N 34°32' E 135°19'0 0.0
2014-Oct-24 05:28N 34°32' E 135°19'0 0.0
2014-Oct-24 04:22N 34°32' E 135°19'0 0.0
2014-Oct-24 03:16N 34°32' E 135°19'0 0.1
2014-Oct-24 02:28N 34°32' E 135°19'0 0.0
2014-Oct-24 01:22N 34°32' E 135°19'0 0.0
2014-Oct-24 00:28N 34°32' E 135°19'0 0.0
2014-Oct-23 23:28N 34°32' E 135°19'0 0.0
2014-Oct-23 22:28N 34°32' E 135°19'0 0.0
2014-Oct-23 21:28N 34°32' E 135°19'0 0.0
2014-Oct-23 20:28N 34°32' E 135°19'0 0.0
2014-Oct-23 19:28N 34°32' E 135°19'0 0.0
2014-Oct-23 18:28N 34°32' E 135°19'0 0.0
2014-Oct-23 17:16N 34°32' E 135°19'0 0.0
2014-Oct-23 16:28N 34°32' E 135°19'0 0.0
2014-Oct-23 15:28N 34°32' E 135°19'0 0.0
2014-Oct-23 14:27N 34°32' E 135°19'0 0.0
2014-Oct-23 13:28N 34°32' E 135°19'0 0.0
2014-Oct-23 12:33N 34°32' E 135°19'0 0.0
2014-Oct-23 11:34N 34°32' E 135°19'0 0.0
2014-Oct-23 10:22N 34°32' E 135°19'0 0.0
2014-Oct-23 09:09N 34°32' E 135°19'0 0.1
2014-Oct-23 08:28N 34°32' E 135°19'0 0.1
2014-Oct-23 07:33N 34°32' E 135°19'0 0.0
2014-Oct-23 06:34N 34°32' E 135°19'8 7.5
2014-Oct-23 05:33N 34°34' E 135°10'141 6.1
2014-Oct-22 06:23N 34°07' E 132°23'9 1.2
2014-Oct-21 23:11N 34°12' E 132°15'2 2.6
2014-Oct-21 22:33N 34°13' E 132°14'0 0.0
2014-Oct-21 21:33N 34°13' E 132°14'0 0.0
2014-Oct-21 20:33N 34°13' E 132°14'0 0.0
2014-Oct-21 19:33N 34°13' E 132°14'0 0.0
2014-Oct-21 18:33N 34°13' E 132°14'0 0.0
2014-Oct-21 17:33N 34°13' E 132°14'0 0.0
2014-Oct-21 16:33N 34°13' E 132°14'0 0.0
2014-Oct-21 15:33N 34°13' E 132°14'0 0.0
2014-Oct-21 14:33N 34°13' E 132°14'0 0.0
2014-Oct-21 13:33N 34°13' E 132°14'0 0.0
2014-Oct-21 11:09N 34°13' E 132°14'0 0.0
2014-Oct-21 10:33N 34°13' E 132°14'0 0.0
2014-Oct-21 09:33N 34°13' E 132°14'0 0.0
2014-Oct-21 08:33N 34°13' E 132°14'  
Track history (hours):
 
Tides and Currents Weather Stations Pressure Air Temp Water Temp Dewpoint Dewpoint Depression Visibility Wind Speed Wind Dir Waves Ship Positions

Puropanmaru No.3

Last reported at 2014-Oct-31 07:33 UTC. Time now 2014-Oct-31 20:56 UTC.
Position N 35°17' E 139°45'.

Length 68 m; draft 4.5 m.

Type: Tanker. MMSI: 431003365.

Date/timePositionNaut miles runAvg speedWind from/ knotsBaromVisibWave heightAir tempDewpointWater temp
2014-Oct-31 07:33N 35°17' E 139°45'1110.5
2014-Oct-31 06:33N 35°27' E 139°48'6 0.8
2014-Oct-30 23:32N 35°29' E 139°55'0 0.1
2014-Oct-30 22:33N 35°29' E 139°55'0 0.0
2014-Oct-30 21:33N 35°29' E 139°55'0 0.0
2014-Oct-30 20:34N 35°29' E 139°55'0 0.0
2014-Oct-30 19:32N 35°29' E 139°55'0 0.0
2014-Oct-30 18:33N 35°29' E 139°55'0 0.0
2014-Oct-30 17:23N 35°29' E 139°55'8 0.7
2014-Oct-30 06:34N 35°25' E 139°47'26010.6
2014-Oct-29 06:03N 34°09' E 134°44'  
2014-Oct-25 05:31N 34°37' E 135°01'1010.5
2014-Oct-25 04:33N 34°35' E 135°13'10 1.9
2014-Oct-24 23:14N 34°32' E 135°25'4 6.0
2014-Oct-24 22:33N 34°33' E 135°20'1 1.0
2014-Oct-24 21:28N 34°32' E 135°19'0 0.0
2014-Oct-24 20:22N 34°32' E 135°19'0 0.0
2014-Oct-24 19:28N 34°32' E 135°19'0 0.0
2014-Oct-24 18:28N 34°32' E 135°19'0 0.0
2014-Oct-24 17:16N 34°32' E 135°19'0 0.0
2014-Oct-24 16:28N 34°32' E 135°19'0 0.0
2014-Oct-24 15:28N 34°32' E 135°19'0 0.0
2014-Oct-24 14:28N 34°32' E 135°19'0 0.0
2014-Oct-24 12:28N 34°32' E 135°19'0 0.0
2014-Oct-24 11:28N 34°32' E 135°19'0 0.0
2014-Oct-24 10:16N 34°32' E 135°19'0 0.1
2014-Oct-24 09:22N 34°32' E 135°19'0 0.0
2014-Oct-24 08:28N 34°32' E 135°19'0 0.0
2014-Oct-24 07:28N 34°32' E 135°19'0 0.0
2014-Oct-24 06:28N 34°32' E 135°19'0 0.0
2014-Oct-24 05:28N 34°32' E 135°19'0 0.0
2014-Oct-24 04:22N 34°32' E 135°19'0 0.0
2014-Oct-24 03:16N 34°32' E 135°19'0 0.1
2014-Oct-24 02:28N 34°32' E 135°19'0 0.0
2014-Oct-24 01:22N 34°32' E 135°19'0 0.0
2014-Oct-24 00:28N 34°32' E 135°19'0 0.0
2014-Oct-23 23:28N 34°32' E 135°19'0 0.0
2014-Oct-23 22:28N 34°32' E 135°19'0 0.0
2014-Oct-23 21:28N 34°32' E 135°19'0 0.0
2014-Oct-23 20:28N 34°32' E 135°19'0 0.0
2014-Oct-23 19:28N 34°32' E 135°19'0 0.0
2014-Oct-23 18:28N 34°32' E 135°19'0 0.0
2014-Oct-23 17:16N 34°32' E 135°19'0 0.0
2014-Oct-23 16:28N 34°32' E 135°19'0 0.0
2014-Oct-23 15:28N 34°32' E 135°19'0 0.0
2014-Oct-23 14:27N 34°32' E 135°19'0 0.0
2014-Oct-23 13:28N 34°32' E 135°19'0 0.0
2014-Oct-23 12:33N 34°32' E 135°19'0 0.0
2014-Oct-23 11:34N 34°32' E 135°19'0 0.0
2014-Oct-23 10:22N 34°32' E 135°19'0 0.0
2014-Oct-23 09:09N 34°32' E 135°19'0 0.1
2014-Oct-23 08:28N 34°32' E 135°19'0 0.1
2014-Oct-23 07:33N 34°32' E 135°19'0 0.0
2014-Oct-23 06:34N 34°32' E 135°19'8 7.5
2014-Oct-23 05:33N 34°34' E 135°10'141 6.1
2014-Oct-22 06:23N 34°07' E 132°23'9 1.2
2014-Oct-21 23:11N 34°12' E 132°15'2 2.6
2014-Oct-21 22:33N 34°13' E 132°14'0 0.0
2014-Oct-21 21:33N 34°13' E 132°14'0 0.0
2014-Oct-21 20:33N 34°13' E 132°14'0 0.0
2014-Oct-21 19:33N 34°13' E 132°14'0 0.0
2014-Oct-21 18:33N 34°13' E 132°14'0 0.0
2014-Oct-21 17:33N 34°13' E 132°14'0 0.0
2014-Oct-21 16:33N 34°13' E 132°14'0 0.0
2014-Oct-21 15:33N 34°13' E 132°14'0 0.0
2014-Oct-21 14:33N 34°13' E 132°14'0 0.0
2014-Oct-21 13:33N 34°13' E 132°14'0 0.0
2014-Oct-21 11:09N 34°13' E 132°14'0 0.0
2014-Oct-21 10:33N 34°13' E 132°14'0 0.0
2014-Oct-21 09:33N 34°13' E 132°14'0 0.0
2014-Oct-21 08:33N 34°13' E 132°14'  

Dump ship's entire track history